Es ist keine erhöhte Aufmerksamkeit aufgrund des Wetters notwendig.    Es gibt keine Warnungen.
Webcam Vorhersage DWD Regenradar Wetterlage NRW Blitze Wind GFS-Modell
webcam


Kleve - Düffelward SSO more information Kleve - Düffelward SSO


Goch more information Goch


Weitere Templates dieser Seite und andere Webseiten:

Meteotemplate

Awekas - Template

weather34 - Template

Wetter im Erzgebirge


te
World Weather Websites
Bo-Rox Wetter Topsites List
 

METAR-Meldungen aus der Umgebung

   
EDLV - Goch
Aktualisierung: 21-09-2019 21:20
Klar  
Klar  
   Wind: SO 13 km/h
Wind: SO 13 km/h
Temperatur: 18°C
Taupunkt: 6°C
Luftfeuchte: 46%
Luftdruck: 1014 hPa
Sichtbarkeit: More than 10 km
Bewölkung: Klar
EDLV 211920Z 13007KT CAVOK 18/06 Q1014
EDLV - Emmerich
Aktualisierung: 21-09-2019 21:20
Klar  
Klar  
   Wind: SO 13 km/h
Wind: SO 13 km/h
Temperatur: 18°C
Taupunkt: 6°C
Luftfeuchte: 46%
Luftdruck: 1014 hPa
Sichtbarkeit: More than 10 km
Bewölkung: Klar
EDLV 211920Z 13007KT CAVOK 18/06 Q1014
EHDL - Nijmegen
Aktualisierung: 21-09-2019 21:25
Klar  
Klar  
   Wind: Osten 13 km/h
Wind: Osten 13 km/h
Temperatur: 18°C
Taupunkt: 8°C
Luftfeuchte: 52%
Luftdruck: 1014 hPa
Bewölkt: Klar
Sichtbarkeit: More than 10 km
Bewölkung: Klar
EHDL 211925Z AUTO 10007KT 020V160 9999 NCD 18/08 Q1014 BLU
EHDL - Arnhem
Aktualisierung: 21-09-2019 21:25
Klar  
Klar  
   Wind: Osten 13 km/h
Wind: Osten 13 km/h
Temperatur: 18°C
Taupunkt: 8°C
Luftfeuchte: 52%
Luftdruck: 1014 hPa
Bewölkt: Klar
Sichtbarkeit: More than 10 km
Bewölkung: Klar
EHDL 211925Z AUTO 10007KT 020V160 9999 NCD 18/08 Q1014 BLU
EDLV - Kalkar
Aktualisierung: 21-09-2019 21:20
Klar  
Klar  
   Wind: SO 13 km/h
Wind: SO 13 km/h
Temperatur: 18°C
Taupunkt: 6°C
Luftfeuchte: 46%
Luftdruck: 1014 hPa
Sichtbarkeit: More than 10 km
Bewölkung: Klar
EDLV 211920Z 13007KT CAVOK 18/06 Q1014
 

Script entwickelt von  Saratoga-weather.org Angepasst für das Template von  Weerstation Leuven

Sie finden Wetter-Infos dieser Station auch auf:

UK Metoffice

European Weather Network

WeatherCloud

Weather Underground

Germany Weather Network

AWEKAS

Neuwetter

Wettersektor

Von uns verwendete Ausrüstung:

Wetterstation
Davis Vantage Pro2

Wetterprogramm
Meteobridge

WetterComputer
Computer

Davis Vantage Pro2

Meteobridge

Computer